Time;durP1;ratioP1;P1;durP2;ratioP2;P2;SDS_P1;SDS_P2;PMS_P1;PMS_P2;Temp;Humidity;BMP_temperature;BMP_pressure;BME280_temperature;BME280_humidity;BME280_pressure;Samples;Min_cycle;Max_cycle;Signal;HPM_P1;HPM_P2
2022/03/31 00:00:34;;;;;;;9.40;5.68;;;;;;;;;;5010352;28;20029;-80
2022/03/31 00:03:01;;;;;;;9.27;5.65;;;;;;;;;;5038083;28;20447;-80
2022/03/31 00:05:27;;;;;;;9.95;6.15;;;;;;;;;;5029228;28;20041;-80
2022/03/31 00:07:55;;;;;;;10.20;6.30;;;;;;;;;;5009835;28;20535;-80
2022/03/31 00:10:27;;;;;;;9.27;5.93;;;;;;;;;;5019981;28;20485;-80
2022/03/31 00:12:54;;;;;;;11.07;6.20;;;;;;;;;;5042236;28;20064;-80
2022/03/31 00:15:21;;;;;;;9.73;6.22;;;;;;;;;;5041286;28;20098;-80
2022/03/31 00:17:47;;;;;;;9.43;6.15;;;;;;;;;;5013085;28;20035;-80
2022/03/31 00:20:13;;;;;;;9.32;5.60;;;;;;;;;;5028108;28;20498;-80
2022/03/31 00:22:39;;;;;;;9.43;5.90;;;;;;;;;;5012756;28;20041;-80
2022/03/31 00:25:06;;;;;;;8.55;5.90;;;;;;;;;;5024612;28;20040;-79
2022/03/31 00:27:32;;;;;;;9.05;5.95;;;;;;;;;;5013552;28;20041;-80
2022/03/31 00:29:57;;;;;;;8.25;5.90;;;;;;;;;;5019829;28;20095;-80
2022/03/31 00:32:23;;;;;;;9.13;5.78;;;;;;;;;;5010783;28;20057;-80
2022/03/31 00:34:49;;;;;;;9.35;6.05;;;;;;;;;;5026600;28;20167;-79
2022/03/31 00:37:14;;;;;;;11.32;6.40;;;;;;;;;;5024886;28;20446;-80
2022/03/31 00:39:42;;;;;;;8.23;5.72;;;;;;;;;;5025443;28;20094;-80
2022/03/31 00:42:09;;;;;;;8.27;5.90;;;;;;;;;;5022504;28;20041;-80
2022/03/31 00:44:35;;;;;;;12.02;6.32;;;;;;;;;;5025515;28;20037;-80
2022/03/31 00:47:00;;;;;;;9.65;6.00;;;;;;;;;;5012862;28;20072;-80
2022/03/31 00:49:26;;;;;;;9.98;6.10;;;;;;;;;;5022490;28;20060;-80
2022/03/31 00:51:54;;;;;;;9.35;6.15;;;;;;;;;;5020713;28;20460;-80
2022/03/31 00:54:22;;;;;;;10.50;6.22;;;;;;;;;;5037967;28;20526;-80
2022/03/31 00:56:49;;;;;;;10.10;6.72;;;;;;;;;;5040892;28;20033;-80
2022/03/31 00:59:18;;;;;;;9.10;5.90;;;;;;;;;;5028128;28;20039;-80
2022/03/31 01:01:45;;;;;;;10.68;5.57;;;;;;;;;;5023252;28;20493;-80
2022/03/31 01:04:12;;;;;;;9.43;5.75;;;;;;;;;;5023545;28;20066;-80
2022/03/31 01:06:38;;;;;;;8.88;6.15;;;;;;;;;;5043167;28;20219;-80
2022/03/31 01:09:05;;;;;;;11.88;6.25;;;;;;;;;;5039240;28;20037;-80
2022/03/31 01:11:32;;;;;;;8.68;6.07;;;;;;;;;;5039991;28;20036;-80
2022/03/31 01:13:58;;;;;;;9.15;6.22;;;;;;;;;;5028385;28;20039;-80
2022/03/31 01:16:25;;;;;;;6.82;5.07;;;;;;;;;;5028724;28;20037;-80
2022/03/31 01:18:51;;;;;;;9.60;5.95;;;;;;;;;;5031435;28;20060;-80
2022/03/31 01:21:17;;;;;;;10.73;6.00;;;;;;;;;;5028566;28;20101;-80
2022/03/31 01:23:44;;;;;;;7.85;6.05;;;;;;;;;;5031483;28;20400;-80
2022/03/31 01:26:10;;;;;;;9.77;6.35;;;;;;;;;;5031568;28;20090;-80
2022/03/31 01:28:41;;;;;;;11.32;6.45;;;;;;;;;;5023297;28;20060;-80
2022/03/31 01:31:08;;;;;;;7.85;5.60;;;;;;;;;;5045755;28;20042;-80
2022/03/31 01:33:34;;;;;;;10.05;6.30;;;;;;;;;;5043900;28;20391;-79
2022/03/31 01:35:59;;;;;;;9.45;6.28;;;;;;;;;;5017211;28;20045;-80
2022/03/31 01:38:26;;;;;;;8.30;5.93;;;;;;;;;;5017609;28;20045;-80
2022/03/31 01:40:51;;;;;;;10.52;6.57;;;;;;;;;;5025488;28;20087;-80
2022/03/31 01:43:17;;;;;;;11.90;6.20;;;;;;;;;;5010060;28;20049;-80
2022/03/31 01:45:43;;;;;;;9.35;5.63;;;;;;;;;;5039046;28;20037;-79
2022/03/31 01:48:09;;;;;;;8.32;6.10;;;;;;;;;;5022709;28;20118;-79
2022/03/31 01:50:35;;;;;;;10.77;6.05;;;;;;;;;;5035405;28;20041;-80
2022/03/31 01:53:01;;;;;;;7.03;5.90;;;;;;;;;;5012569;28;20038;-80
2022/03/31 01:55:26;;;;;;;8.57;6.07;;;;;;;;;;5036103;28;20269;-80
2022/03/31 01:57:52;;;;;;;9.18;5.65;;;;;;;;;;5011770;28;20056;-80
2022/03/31 02:00:18;;;;;;;7.80;5.57;;;;;;;;;;5054141;28;20079;-80
2022/03/31 02:02:44;;;;;;;10.00;5.60;;;;;;;;;;5044586;28;20040;-80
2022/03/31 02:05:11;;;;;;;9.88;5.53;;;;;;;;;;5041084;28;20037;-80
2022/03/31 02:07:38;;;;;;;9.85;5.80;;;;;;;;;;5030092;28;20048;-80
2022/03/31 02:10:05;;;;;;;7.28;5.40;;;;;;;;;;5024313;28;20104;-80
2022/03/31 02:12:31;;;;;;;9.02;5.88;;;;;;;;;;5039099;28;20123;-80
2022/03/31 02:14:56;;;;;;;10.82;5.70;;;;;;;;;;5018150;28;20072;-79
2022/03/31 02:17:22;;;;;;;8.27;5.65;;;;;;;;;;5014986;28;20041;-80
2022/03/31 02:19:48;;;;;;;9.95;5.65;;;;;;;;;;5012071;28;20089;-80
2022/03/31 02:22:13;;;;;;;9.10;5.63;;;;;;;;;;5010321;28;20700;-80
2022/03/31 02:24:39;;;;;;;7.32;5.20;;;;;;;;;;5020783;28;20037;-80
2022/03/31 02:27:05;;;;;;;7.50;5.10;;;;;;;;;;5025643;28;20390;-80
2022/03/31 02:29:31;;;;;;;8.98;5.30;;;;;;;;;;5019723;28;20048;-80
2022/03/31 02:31:57;;;;;;;9.13;6.22;;;;;;;;;;5021312;28;20490;-80
2022/03/31 02:34:22;;;;;;;9.85;5.50;;;;;;;;;;5044890;28;20694;-79
2022/03/31 02:36:48;;;;;;;7.78;4.90;;;;;;;;;;5021838;28;20511;-79
2022/03/31 02:39:14;;;;;;;7.97;5.13;;;;;;;;;;4998998;28;20076;-80
2022/03/31 02:41:40;;;;;;;8.00;4.65;;;;;;;;;;5011201;28;20045;-80
2022/03/31 02:44:07;;;;;;;6.63;4.90;;;;;;;;;;5025061;28;20049;-80
2022/03/31 02:46:32;;;;;;;7.47;4.78;;;;;;;;;;5021380;28;20035;-79
2022/03/31 02:48:59;;;;;;;8.98;5.22;;;;;;;;;;5046591;28;20037;-79
2022/03/31 02:51:25;;;;;;;10.07;4.53;;;;;;;;;;5044638;28;20045;-79
2022/03/31 02:56:36;;;;;;;8.10;4.45;;;;;;;;;;5049449;28;20044;-79
2022/03/31 02:59:04;;;;;;;7.25;4.35;;;;;;;;;;5046031;28;20029;-79
2022/03/31 03:01:30;;;;;;;7.43;4.53;;;;;;;;;;5042053;28;20040;-79
2022/03/31 03:03:57;;;;;;;9.63;4.72;;;;;;;;;;5031371;28;20113;-79
2022/03/31 03:06:23;;;;;;;6.05;4.63;;;;;;;;;;5027869;28;20109;-79
2022/03/31 03:08:48;;;;;;;8.60;4.97;;;;;;;;;;5044987;28;20545;-79
2022/03/31 03:11:15;;;;;;;10.73;4.95;;;;;;;;;;5046244;28;20044;-80
2022/03/31 03:13:40;;;;;;;8.35;4.75;;;;;;;;;;5026211;28;20040;-79
2022/03/31 03:16:08;;;;;;;7.85;4.32;;;;;;;;;;5004229;28;20515;-79
2022/03/31 03:18:34;;;;;;;10.57;5.30;;;;;;;;;;5043421;28;20033;-79
2022/03/31 03:21:01;;;;;;;8.30;4.57;;;;;;;;;;5023613;28;20037;-79
2022/03/31 03:23:27;;;;;;;6.10;3.88;;;;;;;;;;5025159;28;20040;-80
2022/03/31 03:25:52;;;;;;;9.52;4.30;;;;;;;;;;5030856;28;20128;-79
2022/03/31 03:28:18;;;;;;;7.95;4.55;;;;;;;;;;5033362;28;20036;-80
2022/03/31 03:30:45;;;;;;;10.57;5.10;;;;;;;;;;5007740;28;20115;-80
2022/03/31 03:33:10;;;;;;;7.72;4.10;;;;;;;;;;5043853;28;20090;-79
2022/03/31 03:35:36;;;;;;;7.80;4.43;;;;;;;;;;5015600;28;20049;-79
2022/03/31 03:38:02;;;;;;;6.80;3.78;;;;;;;;;;5038174;28;20127;-79
2022/03/31 03:40:29;;;;;;;6.47;3.83;;;;;;;;;;5040293;28;20032;-79
2022/03/31 03:42:55;;;;;;;8.10;3.83;;;;;;;;;;5018812;28;20036;-80
2022/03/31 03:45:21;;;;;;;6.15;4.00;;;;;;;;;;5038284;28;20094;-79
2022/03/31 03:47:48;;;;;;;6.15;3.80;;;;;;;;;;5004028;28;20677;-79
2022/03/31 03:50:14;;;;;;;13.60;4.32;;;;;;;;;;5021442;28;20048;-79
2022/03/31 03:52:40;;;;;;;11.30;3.80;;;;;;;;;;5032756;28;20127;-79
2022/03/31 03:55:07;;;;;;;6.82;3.83;;;;;;;;;;5023277;28;20385;-79
2022/03/31 03:57:32;;;;;;;6.70;4.57;;;;;;;;;;5026923;28;20043;-79
2022/03/31 03:59:58;;;;;;;7.00;3.97;;;;;;;;;;5029714;28;20033;-80
2022/03/31 04:02:24;;;;;;;6.63;3.63;;;;;;;;;;5033296;28;20041;-79
2022/03/31 04:04:49;;;;;;;9.93;3.90;;;;;;;;;;5022759;28;20086;-80
2022/03/31 04:07:15;;;;;;;5.03;3.55;;;;;;;;;;5023948;28;20065;-80
2022/03/31 04:09:41;;;;;;;5.25;3.35;;;;;;;;;;5028376;28;20033;-84
2022/03/31 04:12:07;;;;;;;7.75;3.58;;;;;;;;;;5020448;28;20803;-84
2022/03/31 04:14:32;;;;;;;6.28;3.20;;;;;;;;;;5018313;28;20041;-84
2022/03/31 04:16:58;;;;;;;5.63;3.55;;;;;;;;;;5023091;28;20041;-81
2022/03/31 04:19:24;;;;;;;4.93;3.83;;;;;;;;;;5008517;28;20127;-83
2022/03/31 04:21:50;;;;;;;5.93;4.13;;;;;;;;;;5050177;28;20099;-83
2022/03/31 04:24:15;;;;;;;5.25;3.33;;;;;;;;;;5041338;28;20554;-83
2022/03/31 04:26:41;;;;;;;8.20;3.75;;;;;;;;;;5026857;28;20091;-83
2022/03/31 04:29:09;;;;;;;6.72;3.65;;;;;;;;;;5032282;28;20045;-83
2022/03/31 04:31:40;;;;;;;6.43;3.42;;;;;;;;;;5011541;28;20037;-83
2022/03/31 04:34:08;;;;;;;7.25;3.65;;;;;;;;;;5003090;28;20029;-83
2022/03/31 04:36:34;;;;;;;5.05;3.42;;;;;;;;;;5013239;28;20306;-85
2022/03/31 04:38:59;;;;;;;5.28;3.13;;;;;;;;;;5008415;28;20464;-85
2022/03/31 04:41:25;;;;;;;8.38;3.63;;;;;;;;;;5036980;28;20052;-83
2022/03/31 04:43:51;;;;;;;5.88;3.30;;;;;;;;;;5006526;28;20041;-84
2022/03/31 04:46:18;;;;;;;5.78;3.13;;;;;;;;;;5055233;28;20425;-84
2022/03/31 04:48:44;;;;;;;7.68;3.20;;;;;;;;;;5039992;28;20051;-83
2022/03/31 04:51:10;;;;;;;6.18;2.63;;;;;;;;;;5018059;28;20089;-85
2022/03/31 04:53:36;;;;;;;5.13;3.33;;;;;;;;;;5024142;28;20119;-82
2022/03/31 04:56:01;;;;;;;7.28;3.22;;;;;;;;;;5029056;28;20038;-84
2022/03/31 04:58:28;;;;;;;6.57;3.33;;;;;;;;;;5012837;28;20068;-85
2022/03/31 05:00:53;;;;;;;6.75;3.35;;;;;;;;;;5013369;28;20037;-82
2022/03/31 05:03:19;;;;;;;5.07;3.33;;;;;;;;;;5012339;28;20387;-82
2022/03/31 05:05:45;;;;;;;4.00;2.70;;;;;;;;;;5009654;28;20498;-84
2022/03/31 05:08:11;;;;;;;4.30;2.83;;;;;;;;;;5011553;28;20041;-83
2022/03/31 05:10:37;;;;;;;5.47;3.10;;;;;;;;;;5013480;28;20091;-85
2022/03/31 05:13:03;;;;;;;4.32;2.95;;;;;;;;;;5011896;28;20068;-85
2022/03/31 05:15:29;;;;;;;6.65;2.83;;;;;;;;;;5016085;28;20037;-82
2022/03/31 05:17:55;;;;;;;4.97;2.80;;;;;;;;;;5054301;28;20620;-83
2022/03/31 05:20:22;;;;;;;7.07;3.03;;;;;;;;;;5013948;28;20037;-83
2022/03/31 05:22:48;;;;;;;5.90;3.15;;;;;;;;;;5020592;28;20165;-83
2022/03/31 05:25:14;;;;;;;5.93;3.13;;;;;;;;;;5007889;28;20516;-82
2022/03/31 05:27:41;;;;;;;4.20;2.85;;;;;;;;;;5015887;28;20061;-83
2022/03/31 05:30:07;;;;;;;3.88;2.47;;;;;;;;;;5005939;28;20049;-84
2022/03/31 05:32:33;;;;;;;7.07;2.80;;;;;;;;;;5016881;28;20161;-83
2022/03/31 05:34:59;;;;;;;6.05;3.40;;;;;;;;;;5016327;28;20049;-83
2022/03/31 05:37:24;;;;;;;6.80;2.85;;;;;;;;;;5012659;28;20075;-84
2022/03/31 05:39:51;;;;;;;5.45;3.22;;;;;;;;;;5051435;28;20068;-84
2022/03/31 05:42:16;;;;;;;5.28;3.03;;;;;;;;;;5053565;28;20468;-84
2022/03/31 05:44:42;;;;;;;5.22;3.45;;;;;;;;;;5038499;28;20061;-84
2022/03/31 05:47:08;;;;;;;5.18;2.83;;;;;;;;;;5032097;28;20048;-82
2022/03/31 05:49:34;;;;;;;7.72;3.00;;;;;;;;;;5041016;28;20044;-82
2022/03/31 05:51:59;;;;;;;5.10;2.67;;;;;;;;;;5030795;28;20040;-82
2022/03/31 05:54:25;;;;;;;5.07;3.42;;;;;;;;;;5030365;28;20037;-84
2022/03/31 05:56:51;;;;;;;5.93;3.05;;;;;;;;;;5047047;28;20165;-83
2022/03/31 05:59:17;;;;;;;5.43;3.30;;;;;;;;;;5047080;28;20040;-84
2022/03/31 06:01:43;;;;;;;4.75;2.88;;;;;;;;;;5046055;28;20509;-85
2022/03/31 06:04:09;;;;;;;6.78;2.92;;;;;;;;;;5017507;28;20049;-83
2022/03/31 06:06:34;;;;;;;4.65;2.75;;;;;;;;;;5013423;28;20110;-85
2022/03/31 06:09:00;;;;;;;4.18;3.13;;;;;;;;;;5027298;28;20486;-84
2022/03/31 06:11:26;;;;;;;4.30;2.53;;;;;;;;;;5018015;28;20152;-83
2022/03/31 06:13:52;;;;;;;6.20;2.80;;;;;;;;;;5022472;28;20143;-84
2022/03/31 06:16:17;;;;;;;6.72;3.38;;;;;;;;;;5011881;28;20106;-85
2022/03/31 06:18:44;;;;;;;6.10;3.05;;;;;;;;;;5030588;28;20045;-85
2022/03/31 06:21:09;;;;;;;5.72;3.08;;;;;;;;;;5017809;28;20048;-85
2022/03/31 06:23:35;;;;;;;5.40;3.50;;;;;;;;;;5036827;28;20330;-84
2022/03/31 06:26:01;;;;;;;6.03;3.35;;;;;;;;;;5036382;28;20464;-86
2022/03/31 06:28:28;;;;;;;5.60;2.92;;;;;;;;;;5038934;28;20128;-86
2022/03/31 06:30:54;;;;;;;4.85;3.25;;;;;;;;;;5038928;28;20049;-85
2022/03/31 06:33:20;;;;;;;4.40;3.03;;;;;;;;;;5021178;28;20043;-84
2022/03/31 06:35:46;;;;;;;7.53;3.78;;;;;;;;;;5041544;28;20254;-85
2022/03/31 06:38:12;;;;;;;4.25;2.83;;;;;;;;;;5015290;28;20049;-85
2022/03/31 06:40:41;;;;;;;5.32;2.92;;;;;;;;;;5019449;28;20481;-85
2022/03/31 06:43:07;;;;;;;8.65;3.40;;;;;;;;;;5014463;28;20051;-86
2022/03/31 06:45:34;;;;;;;6.75;2.92;;;;;;;;;;5039071;28;20053;-86
2022/03/31 06:48:01;;;;;;;5.72;3.65;;;;;;;;;;5027869;28;20032;-87
2022/03/31 06:50:27;;;;;;;4.47;3.38;;;;;;;;;;5024563;28;20037;-84
2022/03/31 06:52:56;;;;;;;4.65;3.13;;;;;;;;;;5021451;28;20572;-82
2022/03/31 06:55:22;;;;;;;4.13;3.30;;;;;;;;;;5032222;28;20052;-84
2022/03/31 06:57:47;;;;;;;5.35;3.10;;;;;;;;;;5031425;28;20446;-81
2022/03/31 07:00:14;;;;;;;5.30;2.80;;;;;;;;;;5044083;28;20102;-83
2022/03/31 07:02:39;;;;;;;5.40;3.13;;;;;;;;;;5030314;28;20051;-84
2022/03/31 07:05:05;;;;;;;6.00;3.65;;;;;;;;;;5050612;28;20260;-84
2022/03/31 07:07:31;;;;;;;4.15;3.45;;;;;;;;;;5048581;28;20454;-83
2022/03/31 07:09:59;;;;;;;3.53;3.05;;;;;;;;;;5021860;28;20147;-83
2022/03/31 07:12:25;;;;;;;5.93;3.13;;;;;;;;;;5029862;28;20076;-84
2022/03/31 07:14:51;;;;;;;4.70;3.78;;;;;;;;;;5019837;28;20037;-82
2022/03/31 07:17:16;;;;;;;5.70;3.85;;;;;;;;;;5020776;28;20053;-81
2022/03/31 07:19:42;;;;;;;7.07;3.50;;;;;;;;;;5041088;28;20041;-82
2022/03/31 07:22:08;;;;;;;6.38;3.83;;;;;;;;;;5030042;28;20094;-82
2022/03/31 07:24:33;;;;;;;6.38;3.72;;;;;;;;;;5057468;28;20068;-84
2022/03/31 07:26:59;;;;;;;8.38;4.03;;;;;;;;;;5058984;28;20413;-82
2022/03/31 07:29:25;;;;;;;7.65;4.03;;;;;;;;;;5058520;28;20038;-82
2022/03/31 07:31:51;;;;;;;4.97;3.60;;;;;;;;;;5054935;28;20036;-85
2022/03/31 07:34:17;;;;;;;4.65;3.83;;;;;;;;;;5054611;28;20074;-82
2022/03/31 07:36:43;;;;;;;6.25;3.97;;;;;;;;;;5038867;28;20045;-82
2022/03/31 07:39:08;;;;;;;7.18;4.25;;;;;;;;;;5032851;28;20045;-83
2022/03/31 07:41:34;;;;;;;8.52;4.32;;;;;;;;;;5038047;28;20409;-83
2022/03/31 07:44:00;;;;;;;8.15;3.95;;;;;;;;;;5023712;28;20037;-84
2022/03/31 07:46:29;;;;;;;7.07;4.72;;;;;;;;;;5045627;28;20559;-84
2022/03/31 07:48:55;;;;;;;5.95;4.75;;;;;;;;;;5044872;28;20036;-82
2022/03/31 07:51:21;;;;;;;6.72;4.00;;;;;;;;;;5044993;28;20064;-84
2022/03/31 07:53:47;;;;;;;4.68;3.45;;;;;;;;;;5048928;28;20481;-83
2022/03/31 07:56:12;;;;;;;7.40;4.28;;;;;;;;;;5029904;28;20048;-82
2022/03/31 07:58:38;;;;;;;8.40;4.40;;;;;;;;;;5032220;28;20044;-84
2022/03/31 08:01:04;;;;;;;6.30;3.90;;;;;;;;;;5028762;28;20495;-83
2022/03/31 08:03:30;;;;;;;7.68;4.20;;;;;;;;;;5032291;28;20052;-83
2022/03/31 08:05:56;;;;;;;7.20;3.55;;;;;;;;;;5038224;28;20074;-82
2022/03/31 08:08:21;;;;;;;8.32;3.80;;;;;;;;;;5030591;28;20044;-84
2022/03/31 08:10:49;;;;;;;8.52;4.80;;;;;;;;;;5044705;28;20044;-83
2022/03/31 08:13:23;;;;;;;5.82;4.10;;;;;;;;;;5049505;28;20040;-85
2022/03/31 08:15:48;;;;;;;8.82;4.78;;;;;;;;;;5046714;28;20040;-80
2022/03/31 08:18:14;;;;;;;7.40;3.83;;;;;;;;;;5009282;28;20088;-79
2022/03/31 08:20:41;;;;;;;6.38;4.10;;;;;;;;;;5041725;28;20398;-82
2022/03/31 08:23:08;;;;;;;6.78;4.10;;;;;;;;;;5026227;28;20078;-81
2022/03/31 08:25:34;;;;;;;6.53;4.32;;;;;;;;;;5061433;28;20045;-80
2022/03/31 08:28:00;;;;;;;7.45;4.82;;;;;;;;;;5030169;28;20044;-81
2022/03/31 08:30:26;;;;;;;7.65;4.60;;;;;;;;;;5046360;28;20118;-82
2022/03/31 08:32:52;;;;;;;6.95;4.43;;;;;;;;;;5043006;28;20041;-80
2022/03/31 08:35:18;;;;;;;8.60;4.15;;;;;;;;;;5021752;28;20044;-81
2022/03/31 08:37:44;;;;;;;7.53;4.90;;;;;;;;;;5052053;28;20499;-80
2022/03/31 08:40:11;;;;;;;6.70;3.85;;;;;;;;;;5029164;28;20569;-81
2022/03/31 08:42:38;;;;;;;7.10;4.38;;;;;;;;;;5029032;28;20472;-81
2022/03/31 08:45:04;;;;;;;9.55;4.10;;;;;;;;;;5027192;28;20063;-81
2022/03/31 08:47:30;;;;;;;7.72;4.47;;;;;;;;;;5018242;28;20518;-81
2022/03/31 08:49:57;;;;;;;6.63;4.20;;;;;;;;;;5032173;28;20436;-80
2022/03/31 08:52:23;;;;;;;6.63;4.43;;;;;;;;;;5013219;28;20255;-81
2022/03/31 08:54:50;;;;;;;6.80;4.35;;;;;;;;;;5032178;28;20079;-80
2022/03/31 08:57:16;;;;;;;7.35;4.25;;;;;;;;;;5018767;28;20044;-80
2022/03/31 08:59:42;;;;;;;7.65;4.20;;;;;;;;;;5029950;28;20040;-80
2022/03/31 09:02:09;;;;;;;7.35;4.30;;;;;;;;;;5005241;28;20380;-80
2022/03/31 09:04:35;;;;;;;5.10;3.78;;;;;;;;;;5024692;28;20059;-80
2022/03/31 09:07:06;;;;;;;6.85;3.75;;;;;;;;;;5021191;28;20041;-80
2022/03/31 09:09:32;;;;;;;5.60;3.88;;;;;;;;;;5024799;28;20095;-81
2022/03/31 09:11:58;;;;;;;9.18;3.85;;;;;;;;;;5032298;28;20099;-79
2022/03/31 09:14:31;;;;;;;8.95;4.40;;;;;;;;;;5014447;28;20076;-81
2022/03/31 09:16:58;;;;;;;7.88;4.07;;;;;;;;;;5029612;28;20095;-81
2022/03/31 09:19:25;;;;;;;6.60;4.45;;;;;;;;;;5010017;28;20115;-80
2022/03/31 09:21:58;;;;;;;6.25;4.15;;;;;;;;;;5027890;28;20064;-81
2022/03/31 09:24:29;;;;;;;9.43;4.40;;;;;;;;;;5017098;28;20041;-79
2022/03/31 09:26:58;;;;;;;9.25;5.10;;;;;;;;;;5032701;28;20978;-79
2022/03/31 09:29:25;;;;;;;5.13;4.57;;;;;;;;;;5049670;28;20049;-80
2022/03/31 09:31:51;;;;;;;5.82;4.57;;;;;;;;;;5027166;28;20564;-80
2022/03/31 09:34:18;;;;;;;8.73;5.13;;;;;;;;;;5027258;28;20792;-80
2022/03/31 09:36:52;;;;;;;10.05;4.88;;;;;;;;;;5027947;28;20150;-80
2022/03/31 09:39:19;;;;;;;8.18;4.75;;;;;;;;;;5017386;28;20048;-80
2022/03/31 09:41:47;;;;;;;7.30;4.80;;;;;;;;;;5037384;28;20127;-81
2022/03/31 09:44:19;;;;;;;6.40;5.10;;;;;;;;;;5022230;28;20053;-80
2022/03/31 09:46:46;;;;;;;9.60;5.63;;;;;;;;;;5028914;28;20045;-81
2022/03/31 09:49:17;;;;;;;6.90;5.03;;;;;;;;;;5022731;28;20075;-81
2022/03/31 09:51:48;;;;;;;7.97;4.82;;;;;;;;;;5013709;28;20406;-80
2022/03/31 09:54:14;;;;;;;6.75;4.78;;;;;;;;;;5012126;28;20137;-79
2022/03/31 09:56:40;;;;;;;6.93;5.00;;;;;;;;;;5028039;28;20033;-80
2022/03/31 09:59:09;;;;;;;7.90;5.63;;;;;;;;;;5023769;28;20486;-80
2022/03/31 10:01:36;;;;;;;6.40;4.40;;;;;;;;;;5032254;28;20067;-80
2022/03/31 10:04:02;;;;;;;10.30;5.47;;;;;;;;;;5029711;28;20124;-79
2022/03/31 10:06:28;;;;;;;10.52;4.93;;;;;;;;;;5022279;28;20072;-81
2022/03/31 10:08:57;;;;;;;6.53;5.20;;;;;;;;;;5028725;28;20458;-81
2022/03/31 10:11:23;;;;;;;8.07;5.80;;;;;;;;;;5029183;28;20504;-80
2022/03/31 10:13:55;;;;;;;8.00;5.35;;;;;;;;;;5035256;28;20478;-80
2022/03/31 10:16:29;;;;;;;9.93;5.68;;;;;;;;;;5049844;28;20041;-80
2022/03/31 10:18:55;;;;;;;8.23;6.20;;;;;;;;;;5031568;28;20033;-80
2022/03/31 10:21:30;;;;;;;6.63;5.43;;;;;;;;;;5042520;28;20524;-80
2022/03/31 10:26:41;;;;;;;8.85;5.35;;;;;;;;;;5031407;28;20445;-81
2022/03/31 10:29:12;;;;;;;9.55;5.88;;;;;;;;;;5021277;28;20061;-80
2022/03/31 10:31:49;;;;;;;9.57;5.13;;;;;;;;;;5044091;28;20082;-80
2022/03/31 10:34:15;;;;;;;8.27;5.57;;;;;;;;;;5033522;28;20045;-80
2022/03/31 10:36:49;;;;;;;7.40;5.50;;;;;;;;;;5034713;28;20044;-79
2022/03/31 10:39:19;;;;;;;11.65;6.30;;;;;;;;;;5042519;28;20136;-79
2022/03/31 10:41:46;;;;;;;8.05;5.82;;;;;;;;;;5032365;28;20116;-79
2022/03/31 10:44:12;;;;;;;9.75;5.57;;;;;;;;;;5047897;28;20416;-80
2022/03/31 10:46:39;;;;;;;7.60;5.22;;;;;;;;;;5041702;28;20116;-80
2022/03/31 10:49:12;;;;;;;7.40;5.60;;;;;;;;;;5032617;28;20219;-78
2022/03/31 10:51:41;;;;;;;8.85;5.88;;;;;;;;;;5016652;28;20037;-78
2022/03/31 10:54:10;;;;;;;8.75;5.35;;;;;;;;;;5003338;28;20049;-79
2022/03/31 10:56:36;;;;;;;6.82;5.68;;;;;;;;;;5007000;28;20034;-79
2022/03/31 10:59:04;;;;;;;7.63;5.85;;;;;;;;;;5008240;28;20081;-79
2022/03/31 11:01:33;;;;;;;10.18;5.38;;;;;;;;;;5013856;28;20041;-79
2022/03/31 11:04:02;;;;;;;8.98;5.75;;;;;;;;;;5010170;28;20086;-79
2022/03/31 11:06:29;;;;;;;6.97;5.60;;;;;;;;;;5024929;28;20096;-78
2022/03/31 11:08:54;;;;;;;7.40;5.63;;;;;;;;;;5006673;28;20037;-81
2022/03/31 11:11:28;;;;;;;8.13;6.45;;;;;;;;;;5014385;28;20109;-80
2022/03/31 11:13:55;;;;;;;7.80;5.93;;;;;;;;;;5030294;28;20064;-81
2022/03/31 11:16:22;;;;;;;9.38;6.35;;;;;;;;;;5033712;28;20039;-80
2022/03/31 11:18:55;;;;;;;8.73;6.32;;;;;;;;;;5015998;28;20501;-80
2022/03/31 11:21:21;;;;;;;8.57;6.20;;;;;;;;;;5027493;28;20098;-79
2022/03/31 11:23:48;;;;;;;7.32;5.72;;;;;;;;;;5040792;28;20040;-79
2022/03/31 11:26:27;;;;;;;9.18;6.45;;;;;;;;;;5030432;28;20129;-79
2022/03/31 11:28:53;;;;;;;9.30;6.15;;;;;;;;;;5041023;28;20045;-78
2022/03/31 11:31:20;;;;;;;11.07;6.50;;;;;;;;;;5044544;28;20443;-78
2022/03/31 11:33:46;;;;;;;8.90;6.75;;;;;;;;;;5042003;28;20040;-79
2022/03/31 11:36:12;;;;;;;8.38;6.45;;;;;;;;;;5029663;28;20049;-80
2022/03/31 11:38:39;;;;;;;11.20;6.63;;;;;;;;;;5025045;28;20109;-79
2022/03/31 11:41:04;;;;;;;10.93;7.05;;;;;;;;;;5028898;28;20559;-80
2022/03/31 11:43:32;;;;;;;8.63;5.97;;;;;;;;;;5022674;28;20049;-79
2022/03/31 11:45:57;;;;;;;8.68;6.90;;;;;;;;;;5027843;28;20199;-79
2022/03/31 11:48:35;;;;;;;11.10;7.03;;;;;;;;;;5053747;28;20361;-81
2022/03/31 11:51:06;;;;;;;8.38;6.70;;;;;;;;;;5047347;28;20045;-80
2022/03/31 11:53:34;;;;;;;11.02;6.47;;;;;;;;;;5045071;28;20503;-80
2022/03/31 11:56:08;;;;;;;14.77;6.75;;;;;;;;;;5030343;28;20398;-80
2022/03/31 11:58:56;;;;;;;9.32;6.32;;;;;;;;;;5011617;28;20971;-80
2022/03/31 12:01:43;;;;;;;11.45;6.47;;;;;;;;;;5035267;28;20043;-80
2022/03/31 12:04:30;;;;;;;9.00;6.20;;;;;;;;;;5009909;28;20045;-80
2022/03/31 12:06:58;;;;;;;8.68;6.28;;;;;;;;;;5038898;28;20502;-80
2022/03/31 12:09:26;;;;;;;8.40;6.45;;;;;;;;;;5045574;28;20060;-80
2022/03/31 12:11:55;;;;;;;7.75;6.40;;;;;;;;;;5041023;28;20106;-79
2022/03/31 12:14:22;;;;;;;10.43;6.72;;;;;;;;;;5020149;28;20036;-79
2022/03/31 12:16:49;;;;;;;13.40;6.40;;;;;;;;;;5026386;28;20040;-79
2022/03/31 12:19:16;;;;;;;11.60;6.32;;;;;;;;;;5042780;28;20044;-80
2022/03/31 12:21:54;;;;;;;11.52;6.22;;;;;;;;;;5044700;28;20036;-80
2022/03/31 12:24:20;;;;;;;9.10;6.30;;;;;;;;;;5028007;28;20135;-79
2022/03/31 12:26:56;;;;;;;10.55;6.72;;;;;;;;;;5044313;28;20036;-80
2022/03/31 12:29:24;;;;;;;11.73;6.03;;;;;;;;;;5029228;28;20036;-79
2022/03/31 12:32:04;;;;;;;10.52;6.78;;;;;;;;;;5032494;28;20040;-79
2022/03/31 12:34:31;;;;;;;12.75;6.72;;;;;;;;;;5047193;28;20465;-79
2022/03/31 12:36:57;;;;;;;12.07;6.10;;;;;;;;;;5024073;28;20128;-79
2022/03/31 12:39:22;;;;;;;7.10;5.70;;;;;;;;;;5042505;28;20412;-80
2022/03/31 12:41:54;;;;;;;7.70;6.18;;;;;;;;;;5041756;28;20048;-79
2022/03/31 12:44:23;;;;;;;10.65;6.35;;;;;;;;;;5039094;28;20033;-79
2022/03/31 12:46:58;;;;;;;9.73;6.15;;;;;;;;;;5024433;28;20041;-80
2022/03/31 12:49:26;;;;;;;9.38;6.30;;;;;;;;;;5046231;28;20033;-80
2022/03/31 12:51:54;;;;;;;12.38;6.47;;;;;;;;;;5027988;28;20037;-80
2022/03/31 12:54:32;;;;;;;10.82;6.00;;;;;;;;;;5042788;28;20043;-81
2022/03/31 12:57:20;;;;;;;8.57;6.25;;;;;;;;;;5027990;28;20509;-80
2022/03/31 13:00:18;;;;;;;7.40;5.93;;;;;;;;;;5045924;28;20577;-80
2022/03/31 13:02:44;;;;;;;7.43;5.70;;;;;;;;;;5019136;28;20048;-80
2022/03/31 13:05:10;;;;;;;8.30;5.70;;;;;;;;;;5028181;28;20084;-79
2022/03/31 13:07:36;;;;;;;9.77;6.35;;;;;;;;;;5015667;28;20041;-80
2022/03/31 13:10:06;;;;;;;12.80;6.22;;;;;;;;;;5051221;28;20067;-79
2022/03/31 13:12:33;;;;;;;9.27;6.40;;;;;;;;;;5003730;28;20041;-82
2022/03/31 13:15:00;;;;;;;10.25;5.35;;;;;;;;;;5029542;28;20108;-79
2022/03/31 13:17:26;;;;;;;8.98;5.85;;;;;;;;;;5018533;28;20037;-80
2022/03/31 13:19:52;;;;;;;9.13;5.80;;;;;;;;;;5042243;28;20504;-79
2022/03/31 13:22:29;;;;;;;13.38;6.82;;;;;;;;;;5040470;28;20045;-78
2022/03/31 13:24:56;;;;;;;8.68;5.80;;;;;;;;;;5022631;28;20037;-79
2022/03/31 13:27:22;;;;;;;9.13;6.18;;;;;;;;;;5039289;28;20069;-79
2022/03/31 13:29:49;;;;;;;9.75;6.63;;;;;;;;;;5044211;28;20040;-80
2022/03/31 13:32:15;;;;;;;9.07;6.03;;;;;;;;;;5023644;28;20041;-80
2022/03/31 13:34:46;;;;;;;11.65;6.72;;;;;;;;;;5024778;28;20029;-80
2022/03/31 13:37:13;;;;;;;9.88;5.90;;;;;;;;;;5044614;28;20543;-79
2022/03/31 13:39:39;;;;;;;9.40;6.43;;;;;;;;;;5013059;28;20045;-79
2022/03/31 13:42:09;;;;;;;7.53;4.80;;;;;;;;;;5019303;28;20061;-80
2022/03/31 13:44:36;;;;;;;10.65;6.20;;;;;;;;;;5032300;28;20033;-80
2022/03/31 13:47:03;;;;;;;9.73;6.22;;;;;;;;;;5008262;28;20470;-81
2022/03/31 13:49:30;;;;;;;9.07;5.65;;;;;;;;;;5040634;28;20052;-78
2022/03/31 13:51:56;;;;;;;12.60;6.60;;;;;;;;;;5051272;28;20037;-80
2022/03/31 13:54:24;;;;;;;9.68;5.57;;;;;;;;;;5014826;28;20118;-81
2022/03/31 13:56:51;;;;;;;8.40;5.82;;;;;;;;;;5021323;28;20535;-80
2022/03/31 14:02:04;;;;;;;10.05;6.10;;;;;;;;;;5026535;28;20047;-80
2022/03/31 14:04:30;;;;;;;8.50;6.45;;;;;;;;;;5021535;28;20045;-79
2022/03/31 14:06:57;;;;;;;12.93;6.00;;;;;;;;;;5019508;28;20044;-80
2022/03/31 14:09:24;;;;;;;9.68;6.38;;;;;;;;;;5029617;28;20513;-80
2022/03/31 14:11:51;;;;;;;7.95;5.57;;;;;;;;;;5026968;28;20125;-81
2022/03/31 14:14:18;;;;;;;10.52;5.63;;;;;;;;;;5033916;28;20104;-80
2022/03/31 14:16:48;;;;;;;8.52;5.35;;;;;;;;;;5022543;28;20041;-79
2022/03/31 14:19:14;;;;;;;7.30;5.05;;;;;;;;;;5017929;28;20041;-81
2022/03/31 14:21:41;;;;;;;9.70;5.45;;;;;;;;;;5033749;28;20041;-81
2022/03/31 14:24:10;;;;;;;8.52;5.25;;;;;;;;;;5033052;28;20036;-83
2022/03/31 14:26:37;;;;;;;8.05;4.85;;;;;;;;;;5025946;28;20146;-80
2022/03/31 14:29:04;;;;;;;6.07;4.82;;;;;;;;;;5032320;28;20086;-80
2022/03/31 14:31:29;;;;;;;6.78;4.63;;;;;;;;;;5050978;28;20033;-80
2022/03/31 14:33:56;;;;;;;7.88;5.32;;;;;;;;;;5030409;28;20515;-80
2022/03/31 14:36:23;;;;;;;7.80;4.63;;;;;;;;;;5034704;28;20119;-79
2022/03/31 14:38:50;;;;;;;7.38;4.20;;;;;;;;;;5030185;28;20387;-80
2022/03/31 14:41:17;;;;;;;9.27;4.07;;;;;;;;;;5050587;28;20127;-80
2022/03/31 14:43:47;;;;;;;6.93;4.03;;;;;;;;;;5053105;28;20116;-81
2022/03/31 14:46:15;;;;;;;8.07;4.28;;;;;;;;;;5045691;28;20049;-80
2022/03/31 14:48:41;;;;;;;6.93;3.33;;;;;;;;;;5032891;28;20032;-81